« Back
NWS Peachtree City, Ga » Text Product » MCN Terminal Aerodrome Forecast


Printer-friendly Version
Current Version              Previous Versions:   1  2  3  4  5  6  7  8  9  

Terminal Aerodrome Forecast

576
FTUS42 KFFC 302321
TAFMCN
TAF
KMCN 302321Z 0100/0124 13010KT P6SM VCSH BKN050
     FM010400 13008KT P6SM SCT035
     FM010800 16004KT 4SM BR BKN015
     FM011000 18004KT 3SM BR OVC009
     FM011400 21006KT P6SM OVC012
     FM011600 22008KT P6SM VCSH BKN025
     FM012200 23009KT 4SM -TSRA BKN030CB=



USA.gov is the U.S. government's official web portal to all federal, state and local government web resources and services.